sensor_id;sensor_type;location;lat;lon;timestamp;P1;durP1;ratioP1;P2;durP2;ratioP2
13897;SDS011;7019;50.766;4.474;2024-03-02T00:00:48;1.93;;;0.90;;
13897;SDS011;7019;50.766;4.474;2024-03-02T00:03:16;1.33;;;0.20;;
13897;SDS011;7019;50.766;4.474;2024-03-02T00:05:46;1.13;;;0.20;;
13897;SDS011;7019;50.766;4.474;2024-03-02T00:08:18;0.70;;;0.40;;
13897;SDS011;7019;50.766;4.474;2024-03-02T00:10:50;0.40;;;0.20;;
13897;SDS011;7019;50.766;4.474;2024-03-02T00:13:19;1.17;;;0.40;;
13897;SDS011;7019;50.766;4.474;2024-03-02T00:15:51;0.57;;;0.30;;
13897;SDS011;7019;50.766;4.474;2024-03-02T00:18:20;1.77;;;0.23;;
13897;SDS011;7019;50.766;4.474;2024-03-02T00:20:49;0.20;;;0.20;;
13897;SDS011;7019;50.766;4.474;2024-03-02T00:23:20;0.13;;;0.10;;
13897;SDS011;7019;50.766;4.474;2024-03-02T00:25:49;0.93;;;0.20;;
13897;SDS011;7019;50.766;4.474;2024-03-02T00:28:19;0.40;;;0.10;;
13897;SDS011;7019;50.766;4.474;2024-03-02T00:31:02;0.13;;;0.13;;
13897;SDS011;7019;50.766;4.474;2024-03-02T00:33:31;0.97;;;0.33;;
13897;SDS011;7019;50.766;4.474;2024-03-02T00:36:02;1.07;;;0.33;;
13897;SDS011;7019;50.766;4.474;2024-03-02T00:38:30;0.20;;;0.17;;
13897;SDS011;7019;50.766;4.474;2024-03-02T00:40:58;0.33;;;0.10;;
13897;SDS011;7019;50.766;4.474;2024-03-02T00:43:40;0.20;;;0.20;;
13897;SDS011;7019;50.766;4.474;2024-03-02T00:46:10;0.60;;;0.13;;
13897;SDS011;7019;50.766;4.474;2024-03-02T00:48:39;0.50;;;0.30;;
13897;SDS011;7019;50.766;4.474;2024-03-02T00:51:12;0.17;;;0.10;;
13897;SDS011;7019;50.766;4.474;2024-03-02T00:53:39;0.57;;;0.17;;
13897;SDS011;7019;50.766;4.474;2024-03-02T00:56:07;0.20;;;0.13;;
13897;SDS011;7019;50.766;4.474;2024-03-02T00:58:37;0.30;;;0.10;;
13897;SDS011;7019;50.766;4.474;2024-03-02T01:01:04;0.53;;;0.20;;
13897;SDS011;7019;50.766;4.474;2024-03-02T01:03:32;0.30;;;0.10;;
13897;SDS011;7019;50.766;4.474;2024-03-02T01:05:59;0.67;;;0.20;;
13897;SDS011;7019;50.766;4.474;2024-03-02T01:08:28;0.87;;;0.20;;
13897;SDS011;7019;50.766;4.474;2024-03-02T01:10:55;0.20;;;0.20;;
13897;SDS011;7019;50.766;4.474;2024-03-02T01:13:22;0.60;;;0.30;;
13897;SDS011;7019;50.766;4.474;2024-03-02T01:15:50;0.77;;;0.10;;
13897;SDS011;7019;50.766;4.474;2024-03-02T01:18:17;1.13;;;0.10;;
13897;SDS011;7019;50.766;4.474;2024-03-02T01:20:44;2.43;;;0.20;;
13897;SDS011;7019;50.766;4.474;2024-03-02T01:23:11;0.43;;;0.10;;
13897;SDS011;7019;50.766;4.474;2024-03-02T01:25:39;0.40;;;0.10;;
13897;SDS011;7019;50.766;4.474;2024-03-02T01:28:07;0.47;;;0.10;;
13897;SDS011;7019;50.766;4.474;2024-03-02T01:30:33;0.50;;;0.20;;
13897;SDS011;7019;50.766;4.474;2024-03-02T01:33:02;2.33;;;0.17;;
13897;SDS011;7019;50.766;4.474;2024-03-02T01:35:30;1.30;;;0.30;;
13897;SDS011;7019;50.766;4.474;2024-03-02T01:37:57;0.17;;;0.10;;
13897;SDS011;7019;50.766;4.474;2024-03-02T01:40:24;1.10;;;0.30;;
13897;SDS011;7019;50.766;4.474;2024-03-02T01:42:53;0.30;;;0.20;;
13897;SDS011;7019;50.766;4.474;2024-03-02T01:45:23;1.03;;;0.30;;
13897;SDS011;7019;50.766;4.474;2024-03-02T01:47:50;0.50;;;0.30;;
13897;SDS011;7019;50.766;4.474;2024-03-02T01:50:24;2.97;;;0.33;;
13897;SDS011;7019;50.766;4.474;2024-03-02T01:52:52;0.83;;;0.10;;
13897;SDS011;7019;50.766;4.474;2024-03-02T01:55:20;2.60;;;0.40;;
13897;SDS011;7019;50.766;4.474;2024-03-02T01:57:47;0.43;;;0.20;;
13897;SDS011;7019;50.766;4.474;2024-03-02T02:00:17;1.70;;;0.40;;
13897;SDS011;7019;50.766;4.474;2024-03-02T02:02:45;2.77;;;0.40;;
13897;SDS011;7019;50.766;4.474;2024-03-02T02:05:13;2.57;;;0.20;;
13897;SDS011;7019;50.766;4.474;2024-03-02T02:07:40;0.70;;;0.40;;
13897;SDS011;7019;50.766;4.474;2024-03-02T02:10:08;0.97;;;0.20;;
13897;SDS011;7019;50.766;4.474;2024-03-02T02:12:35;0.73;;;0.20;;
13897;SDS011;7019;50.766;4.474;2024-03-02T02:15:03;1.63;;;0.20;;
13897;SDS011;7019;50.766;4.474;2024-03-02T02:17:32;1.07;;;0.23;;
13897;SDS011;7019;50.766;4.474;2024-03-02T02:19:59;0.70;;;0.27;;
13897;SDS011;7019;50.766;4.474;2024-03-02T02:22:27;3.40;;;0.57;;
13897;SDS011;7019;50.766;4.474;2024-03-02T02:24:54;3.03;;;0.70;;
13897;SDS011;7019;50.766;4.474;2024-03-02T02:27:21;1.23;;;0.20;;
13897;SDS011;7019;50.766;4.474;2024-03-02T02:29:48;0.60;;;0.20;;
13897;SDS011;7019;50.766;4.474;2024-03-02T02:32:15;2.77;;;0.30;;
13897;SDS011;7019;50.766;4.474;2024-03-02T02:34:42;2.10;;;0.27;;
13897;SDS011;7019;50.766;4.474;2024-03-02T02:37:09;3.63;;;0.50;;
13897;SDS011;7019;50.766;4.474;2024-03-02T02:39:38;1.43;;;0.50;;
13897;SDS011;7019;50.766;4.474;2024-03-02T02:42:05;3.40;;;0.43;;
13897;SDS011;7019;50.766;4.474;2024-03-02T02:44:32;0.83;;;0.40;;
13897;SDS011;7019;50.766;4.474;2024-03-02T02:46:59;0.70;;;0.40;;
13897;SDS011;7019;50.766;4.474;2024-03-02T02:49:26;0.87;;;0.20;;
13897;SDS011;7019;50.766;4.474;2024-03-02T02:51:53;0.73;;;0.30;;
13897;SDS011;7019;50.766;4.474;2024-03-02T02:54:20;0.63;;;0.20;;
13897;SDS011;7019;50.766;4.474;2024-03-02T02:56:48;3.10;;;0.43;;
13897;SDS011;7019;50.766;4.474;2024-03-02T02:59:15;3.80;;;0.30;;
13897;SDS011;7019;50.766;4.474;2024-03-02T03:01:42;0.67;;;0.27;;
13897;SDS011;7019;50.766;4.474;2024-03-02T03:04:09;0.40;;;0.23;;
13897;SDS011;7019;50.766;4.474;2024-03-02T03:06:36;4.07;;;0.73;;
13897;SDS011;7019;50.766;4.474;2024-03-02T03:09:03;0.53;;;0.20;;
13897;SDS011;7019;50.766;4.474;2024-03-02T03:11:30;0.43;;;0.10;;
13897;SDS011;7019;50.766;4.474;2024-03-02T03:13:59;4.00;;;0.30;;
13897;SDS011;7019;50.766;4.474;2024-03-02T03:16:26;1.37;;;0.60;;
13897;SDS011;7019;50.766;4.474;2024-03-02T03:18:53;0.20;;;0.20;;
13897;SDS011;7019;50.766;4.474;2024-03-02T03:21:20;0.87;;;0.20;;
13897;SDS011;7019;50.766;4.474;2024-03-02T03:23:47;0.70;;;0.17;;
13897;SDS011;7019;50.766;4.474;2024-03-02T03:26:14;2.50;;;0.20;;
13897;SDS011;7019;50.766;4.474;2024-03-02T03:28:41;1.47;;;0.37;;
13897;SDS011;7019;50.766;4.474;2024-03-02T03:31:10;0.77;;;0.40;;
13897;SDS011;7019;50.766;4.474;2024-03-02T03:33:37;2.07;;;0.30;;
13897;SDS011;7019;50.766;4.474;2024-03-02T03:36:04;0.97;;;0.40;;
13897;SDS011;7019;50.766;4.474;2024-03-02T03:38:31;2.33;;;0.30;;
13897;SDS011;7019;50.766;4.474;2024-03-02T03:40:58;0.93;;;0.20;;
13897;SDS011;7019;50.766;4.474;2024-03-02T03:43:25;1.10;;;0.37;;
13897;SDS011;7019;50.766;4.474;2024-03-02T03:45:52;2.53;;;0.67;;
13897;SDS011;7019;50.766;4.474;2024-03-02T03:48:21;3.20;;;0.40;;
13897;SDS011;7019;50.766;4.474;2024-03-02T03:50:48;4.43;;;0.40;;
13897;SDS011;7019;50.766;4.474;2024-03-02T03:53:15;1.33;;;0.50;;
13897;SDS011;7019;50.766;4.474;2024-03-02T03:55:42;0.80;;;0.30;;
13897;SDS011;7019;50.766;4.474;2024-03-02T03:58:11;1.80;;;0.20;;
13897;SDS011;7019;50.766;4.474;2024-03-02T04:00:39;1.23;;;0.30;;
13897;SDS011;7019;50.766;4.474;2024-03-02T04:03:06;2.03;;;0.20;;
13897;SDS011;7019;50.766;4.474;2024-03-02T04:05:34;4.57;;;0.70;;
13897;SDS011;7019;50.766;4.474;2024-03-02T04:08:01;0.77;;;0.53;;
13897;SDS011;7019;50.766;4.474;2024-03-02T04:10:29;3.60;;;0.40;;
13897;SDS011;7019;50.766;4.474;2024-03-02T04:12:56;1.23;;;0.40;;
13897;SDS011;7019;50.766;4.474;2024-03-02T04:15:23;0.30;;;0.20;;
13897;SDS011;7019;50.766;4.474;2024-03-02T04:17:50;2.10;;;0.53;;
13897;SDS011;7019;50.766;4.474;2024-03-02T04:20:17;2.00;;;0.30;;
13897;SDS011;7019;50.766;4.474;2024-03-02T04:22:46;1.80;;;0.60;;
13897;SDS011;7019;50.766;4.474;2024-03-02T04:25:13;2.70;;;0.40;;
13897;SDS011;7019;50.766;4.474;2024-03-02T04:27:40;1.93;;;0.50;;
13897;SDS011;7019;50.766;4.474;2024-03-02T04:30:08;1.57;;;0.60;;
13897;SDS011;7019;50.766;4.474;2024-03-02T04:32:35;5.27;;;0.77;;
13897;SDS011;7019;50.766;4.474;2024-03-02T04:35:02;0.77;;;0.30;;
13897;SDS011;7019;50.766;4.474;2024-03-02T04:37:30;0.73;;;0.30;;
13897;SDS011;7019;50.766;4.474;2024-03-02T04:39:59;0.87;;;0.40;;
13897;SDS011;7019;50.766;4.474;2024-03-02T04:42:26;0.57;;;0.30;;
13897;SDS011;7019;50.766;4.474;2024-03-02T04:44:53;3.00;;;0.60;;
13897;SDS011;7019;50.766;4.474;2024-03-02T04:47:20;2.70;;;0.80;;
13897;SDS011;7019;50.766;4.474;2024-03-02T04:49:47;3.13;;;0.60;;
13897;SDS011;7019;50.766;4.474;2024-03-02T04:52:15;4.67;;;0.80;;
13897;SDS011;7019;50.766;4.474;2024-03-02T04:54:42;2.20;;;0.50;;
13897;SDS011;7019;50.766;4.474;2024-03-02T04:57:25;5.23;;;0.60;;
13897;SDS011;7019;50.766;4.474;2024-03-02T04:59:52;2.10;;;1.03;;
13897;SDS011;7019;50.766;4.474;2024-03-02T05:02:19;2.83;;;0.60;;
13897;SDS011;7019;50.766;4.474;2024-03-02T05:04:46;1.97;;;0.67;;
13897;SDS011;7019;50.766;4.474;2024-03-02T05:07:13;6.60;;;0.97;;
13897;SDS011;7019;50.766;4.474;2024-03-02T05:09:41;2.83;;;0.93;;
13897;SDS011;7019;50.766;4.474;2024-03-02T05:12:08;3.57;;;0.50;;
13897;SDS011;7019;50.766;4.474;2024-03-02T05:14:49;2.83;;;1.00;;
13897;SDS011;7019;50.766;4.474;2024-03-02T05:17:16;4.40;;;1.47;;
13897;SDS011;7019;50.766;4.474;2024-03-02T05:19:43;1.20;;;0.53;;
13897;SDS011;7019;50.766;4.474;2024-03-02T05:22:10;5.30;;;0.80;;
13897;SDS011;7019;50.766;4.474;2024-03-02T05:24:37;4.63;;;1.30;;
13897;SDS011;7019;50.766;4.474;2024-03-02T05:27:04;2.27;;;0.83;;
13897;SDS011;7019;50.766;4.474;2024-03-02T05:29:32;6.70;;;1.13;;
13897;SDS011;7019;50.766;4.474;2024-03-02T05:32:01;6.87;;;0.80;;
13897;SDS011;7019;50.766;4.474;2024-03-02T05:34:28;1.37;;;0.40;;
13897;SDS011;7019;50.766;4.474;2024-03-02T05:36:55;2.17;;;0.50;;
13897;SDS011;7019;50.766;4.474;2024-03-02T05:39:24;2.40;;;0.70;;
13897;SDS011;7019;50.766;4.474;2024-03-02T05:41:51;5.07;;;0.47;;
13897;SDS011;7019;50.766;4.474;2024-03-02T05:44:18;4.73;;;0.77;;
13897;SDS011;7019;50.766;4.474;2024-03-02T05:46:45;6.37;;;0.97;;
13897;SDS011;7019;50.766;4.474;2024-03-02T05:49:13;3.13;;;0.50;;
13897;SDS011;7019;50.766;4.474;2024-03-02T05:51:40;4.27;;;0.90;;
13897;SDS011;7019;50.766;4.474;2024-03-02T05:54:07;2.57;;;0.73;;
13897;SDS011;7019;50.766;4.474;2024-03-02T05:56:34;2.87;;;0.83;;
13897;SDS011;7019;50.766;4.474;2024-03-02T05:59:02;4.13;;;0.70;;
13897;SDS011;7019;50.766;4.474;2024-03-02T06:01:37;6.40;;;0.90;;
13897;SDS011;7019;50.766;4.474;2024-03-02T06:04:04;1.10;;;0.53;;
13897;SDS011;7019;50.766;4.474;2024-03-02T06:06:33;4.60;;;0.80;;
13897;SDS011;7019;50.766;4.474;2024-03-02T06:09:00;1.53;;;0.47;;
13897;SDS011;7019;50.766;4.474;2024-03-02T06:11:27;1.07;;;0.37;;
13897;SDS011;7019;50.766;4.474;2024-03-02T06:13:54;4.10;;;0.70;;
13897;SDS011;7019;50.766;4.474;2024-03-02T06:16:22;5.20;;;0.30;;
13897;SDS011;7019;50.766;4.474;2024-03-02T06:18:49;5.40;;;0.50;;
13897;SDS011;7019;50.766;4.474;2024-03-02T06:21:16;3.60;;;0.53;;
13897;SDS011;7019;50.766;4.474;2024-03-02T06:23:45;3.63;;;0.50;;
13897;SDS011;7019;50.766;4.474;2024-03-02T06:26:12;2.40;;;0.80;;
13897;SDS011;7019;50.766;4.474;2024-03-02T06:28:39;2.80;;;0.40;;
13897;SDS011;7019;50.766;4.474;2024-03-02T06:31:06;2.30;;;0.70;;
13897;SDS011;7019;50.766;4.474;2024-03-02T06:33:33;1.40;;;0.57;;
13897;SDS011;7019;50.766;4.474;2024-03-02T06:36:00;2.27;;;0.80;;
13897;SDS011;7019;50.766;4.474;2024-03-02T06:38:27;1.93;;;0.70;;
13897;SDS011;7019;50.766;4.474;2024-03-02T06:40:58;1.57;;;0.60;;
13897;SDS011;7019;50.766;4.474;2024-03-02T06:43:25;5.90;;;0.60;;
13897;SDS011;7019;50.766;4.474;2024-03-02T06:45:52;4.13;;;0.73;;
13897;SDS011;7019;50.766;4.474;2024-03-02T06:48:19;0.90;;;0.30;;
13897;SDS011;7019;50.766;4.474;2024-03-02T06:50:46;3.80;;;0.77;;
13897;SDS011;7019;50.766;4.474;2024-03-02T06:53:13;3.33;;;1.00;;
13897;SDS011;7019;50.766;4.474;2024-03-02T06:55:42;1.40;;;1.03;;
13897;SDS011;7019;50.766;4.474;2024-03-02T06:58:12;5.10;;;1.30;;
13897;SDS011;7019;50.766;4.474;2024-03-02T07:00:40;2.67;;;1.03;;
13897;SDS011;7019;50.766;4.474;2024-03-02T07:03:09;1.80;;;0.40;;
13897;SDS011;7019;50.766;4.474;2024-03-02T07:05:36;3.80;;;0.80;;
13897;SDS011;7019;50.766;4.474;2024-03-02T07:08:03;3.47;;;1.00;;
13897;SDS011;7019;50.766;4.474;2024-03-02T07:10:31;5.30;;;0.93;;
13897;SDS011;7019;50.766;4.474;2024-03-02T07:12:58;3.63;;;1.03;;
13897;SDS011;7019;50.766;4.474;2024-03-02T07:15:26;2.67;;;1.17;;
13897;SDS011;7019;50.766;4.474;2024-03-02T07:18:12;3.30;;;1.23;;
13897;SDS011;7019;50.766;4.474;2024-03-02T07:20:39;3.70;;;1.07;;
13897;SDS011;7019;50.766;4.474;2024-03-02T07:23:06;5.03;;;1.80;;
13897;SDS011;7019;50.766;4.474;2024-03-02T07:25:34;3.70;;;0.90;;
13897;SDS011;7019;50.766;4.474;2024-03-02T07:28:01;4.63;;;0.80;;
13897;SDS011;7019;50.766;4.474;2024-03-02T07:30:30;1.30;;;0.70;;
13897;SDS011;7019;50.766;4.474;2024-03-02T07:32:57;1.83;;;0.50;;
13897;SDS011;7019;50.766;4.474;2024-03-02T07:35:24;5.37;;;0.70;;
13897;SDS011;7019;50.766;4.474;2024-03-02T07:37:52;1.47;;;0.53;;
13897;SDS011;7019;50.766;4.474;2024-03-02T07:40:20;2.37;;;0.60;;
13897;SDS011;7019;50.766;4.474;2024-03-02T07:42:47;4.27;;;0.70;;
13897;SDS011;7019;50.766;4.474;2024-03-02T07:45:14;3.97;;;0.70;;
13897;SDS011;7019;50.766;4.474;2024-03-02T07:47:43;6.87;;;0.80;;
13897;SDS011;7019;50.766;4.474;2024-03-02T07:50:10;1.20;;;0.57;;
13897;SDS011;7019;50.766;4.474;2024-03-02T07:52:37;2.33;;;0.70;;
13897;SDS011;7019;50.766;4.474;2024-03-02T07:55:04;3.30;;;0.80;;
13897;SDS011;7019;50.766;4.474;2024-03-02T07:57:32;5.13;;;0.67;;
13897;SDS011;7019;50.766;4.474;2024-03-02T07:59:59;4.40;;;0.70;;
13897;SDS011;7019;50.766;4.474;2024-03-02T08:02:26;4.00;;;0.70;;
13897;SDS011;7019;50.766;4.474;2024-03-02T08:04:54;2.57;;;0.93;;
13897;SDS011;7019;50.766;4.474;2024-03-02T08:07:21;2.97;;;0.70;;
13897;SDS011;7019;50.766;4.474;2024-03-02T08:09:49;2.57;;;0.70;;
13897;SDS011;7019;50.766;4.474;2024-03-02T08:12:16;3.27;;;0.67;;
13897;SDS011;7019;50.766;4.474;2024-03-02T08:14:44;3.13;;;0.80;;
13897;SDS011;7019;50.766;4.474;2024-03-02T08:17:11;2.53;;;0.47;;
13897;SDS011;7019;50.766;4.474;2024-03-02T08:19:38;5.37;;;0.73;;
13897;SDS011;7019;50.766;4.474;2024-03-02T08:22:08;3.53;;;0.53;;
13897;SDS011;7019;50.766;4.474;2024-03-02T08:24:35;5.50;;;0.67;;
13897;SDS011;7019;50.766;4.474;2024-03-02T08:27:02;2.53;;;0.80;;
13897;SDS011;7019;50.766;4.474;2024-03-02T08:29:30;3.93;;;1.03;;
13897;SDS011;7019;50.766;4.474;2024-03-02T08:31:57;7.13;;;0.87;;
13897;SDS011;7019;50.766;4.474;2024-03-02T08:34:24;3.00;;;0.50;;
13897;SDS011;7019;50.766;4.474;2024-03-02T08:36:51;9.83;;;1.27;;
13897;SDS011;7019;50.766;4.474;2024-03-02T08:39:19;7.07;;;0.87;;
13897;SDS011;7019;50.766;4.474;2024-03-02T08:41:47;4.60;;;0.50;;
13897;SDS011;7019;50.766;4.474;2024-03-02T08:44:14;4.57;;;0.70;;
13897;SDS011;7019;50.766;4.474;2024-03-02T08:46:41;1.00;;;0.40;;
13897;SDS011;7019;50.766;4.474;2024-03-02T08:49:09;3.70;;;1.10;;
13897;SDS011;7019;50.766;4.474;2024-03-02T08:51:37;2.97;;;0.30;;
13897;SDS011;7019;50.766;4.474;2024-03-02T08:54:04;3.57;;;0.53;;
13897;SDS011;7019;50.766;4.474;2024-03-02T08:56:33;5.30;;;0.70;;
13897;SDS011;7019;50.766;4.474;2024-03-02T08:59:00;1.77;;;0.53;;
13897;SDS011;7019;50.766;4.474;2024-03-02T09:01:27;2.37;;;0.70;;
13897;SDS011;7019;50.766;4.474;2024-03-02T09:03:54;4.83;;;0.70;;
13897;SDS011;7019;50.766;4.474;2024-03-02T09:06:21;3.77;;;1.33;;
13897;SDS011;7019;50.766;4.474;2024-03-02T09:08:48;5.50;;;0.63;;
13897;SDS011;7019;50.766;4.474;2024-03-02T09:11:17;2.30;;;0.70;;
13897;SDS011;7019;50.766;4.474;2024-03-02T09:13:45;2.43;;;0.80;;
13897;SDS011;7019;50.766;4.474;2024-03-02T09:16:12;6.20;;;1.00;;
13897;SDS011;7019;50.766;4.474;2024-03-02T09:18:39;5.33;;;0.50;;
13897;SDS011;7019;50.766;4.474;2024-03-02T09:21:06;4.13;;;0.57;;
13897;SDS011;7019;50.766;4.474;2024-03-02T09:23:33;2.53;;;0.77;;
13897;SDS011;7019;50.766;4.474;2024-03-02T09:26:00;5.00;;;1.20;;
13897;SDS011;7019;50.766;4.474;2024-03-02T09:28:28;6.90;;;1.50;;
13897;SDS011;7019;50.766;4.474;2024-03-02T09:30:56;4.20;;;0.97;;
13897;SDS011;7019;50.766;4.474;2024-03-02T09:33:23;2.63;;;1.20;;
13897;SDS011;7019;50.766;4.474;2024-03-02T09:35:50;1.77;;;0.60;;
13897;SDS011;7019;50.766;4.474;2024-03-02T09:38:17;3.60;;;0.87;;
13897;SDS011;7019;50.766;4.474;2024-03-02T09:40:44;4.93;;;1.17;;
13897;SDS011;7019;50.766;4.474;2024-03-02T09:43:12;5.70;;;1.57;;
13897;SDS011;7019;50.766;4.474;2024-03-02T09:45:39;8.63;;;2.37;;
13897;SDS011;7019;50.766;4.474;2024-03-02T09:48:08;8.23;;;1.77;;
13897;SDS011;7019;50.766;4.474;2024-03-02T09:50:35;4.33;;;1.07;;
13897;SDS011;7019;50.766;4.474;2024-03-02T09:53:02;1.80;;;0.47;;
13897;SDS011;7019;50.766;4.474;2024-03-02T09:55:30;2.23;;;0.60;;
13897;SDS011;7019;50.766;4.474;2024-03-02T09:57:57;4.60;;;0.67;;
13897;SDS011;7019;50.766;4.474;2024-03-02T10:00:24;1.67;;;0.60;;
13897;SDS011;7019;50.766;4.474;2024-03-02T10:02:51;1.50;;;0.57;;
13897;SDS011;7019;50.766;4.474;2024-03-02T10:05:26;5.00;;;0.83;;
13897;SDS011;7019;50.766;4.474;2024-03-02T10:08:00;3.90;;;1.10;;
13897;SDS011;7019;50.766;4.474;2024-03-02T10:10:34;2.70;;;1.10;;
13897;SDS011;7019;50.766;4.474;2024-03-02T10:13:05;6.87;;;1.13;;
13897;SDS011;7019;50.766;4.474;2024-03-02T10:15:34;5.97;;;0.70;;
13897;SDS011;7019;50.766;4.474;2024-03-02T10:18:02;4.27;;;0.93;;
13897;SDS011;7019;50.766;4.474;2024-03-02T10:20:31;4.53;;;0.87;;
13897;SDS011;7019;50.766;4.474;2024-03-02T10:23:09;2.80;;;0.50;;
13897;SDS011;7019;50.766;4.474;2024-03-02T10:25:37;4.13;;;0.90;;
13897;SDS011;7019;50.766;4.474;2024-03-02T10:28:04;3.70;;;1.10;;
13897;SDS011;7019;50.766;4.474;2024-03-02T10:30:32;6.90;;;0.87;;
13897;SDS011;7019;50.766;4.474;2024-03-02T10:33:00;5.17;;;0.50;;
13897;SDS011;7019;50.766;4.474;2024-03-02T10:35:28;3.40;;;0.80;;
13897;SDS011;7019;50.766;4.474;2024-03-02T10:37:57;3.70;;;0.70;;
13897;SDS011;7019;50.766;4.474;2024-03-02T10:40:26;3.67;;;0.63;;
13897;SDS011;7019;50.766;4.474;2024-03-02T10:42:53;6.93;;;0.77;;
13897;SDS011;7019;50.766;4.474;2024-03-02T10:45:21;2.40;;;0.70;;
13897;SDS011;7019;50.766;4.474;2024-03-02T10:47:49;6.37;;;0.90;;
13897;SDS011;7019;50.766;4.474;2024-03-02T10:50:17;2.70;;;0.60;;
13897;SDS011;7019;50.766;4.474;2024-03-02T10:52:44;3.73;;;0.70;;
13897;SDS011;7019;50.766;4.474;2024-03-02T10:55:13;5.90;;;0.63;;
13897;SDS011;7019;50.766;4.474;2024-03-02T10:57:41;5.10;;;0.60;;
13897;SDS011;7019;50.766;4.474;2024-03-02T11:00:11;2.93;;;0.40;;
13897;SDS011;7019;50.766;4.474;2024-03-02T11:02:45;4.20;;;0.60;;
13897;SDS011;7019;50.766;4.474;2024-03-02T11:05:18;9.00;;;0.83;;
13897;SDS011;7019;50.766;4.474;2024-03-02T11:07:57;1.73;;;0.40;;
13897;SDS011;7019;50.766;4.474;2024-03-02T11:10:29;1.33;;;0.40;;
13897;SDS011;7019;50.766;4.474;2024-03-02T11:13:04;2.77;;;0.77;;
13897;SDS011;7019;50.766;4.474;2024-03-02T11:15:34;7.50;;;0.90;;
13897;SDS011;7019;50.766;4.474;2024-03-02T11:18:03;5.07;;;1.23;;
13897;SDS011;7019;50.766;4.474;2024-03-02T11:20:34;4.10;;;0.77;;
13897;SDS011;7019;50.766;4.474;2024-03-02T11:23:06;4.20;;;0.80;;
13897;SDS011;7019;50.766;4.474;2024-03-02T11:25:36;5.43;;;0.90;;
13897;SDS011;7019;50.766;4.474;2024-03-02T11:28:04;2.63;;;0.67;;
13897;SDS011;7019;50.766;4.474;2024-03-02T11:30:49;1.63;;;0.60;;
13897;SDS011;7019;50.766;4.474;2024-03-02T11:33:22;2.50;;;0.57;;
13897;SDS011;7019;50.766;4.474;2024-03-02T11:35:52;3.90;;;0.67;;
13897;SDS011;7019;50.766;4.474;2024-03-02T11:38:20;3.57;;;0.60;;
13897;SDS011;7019;50.766;4.474;2024-03-02T11:40:48;4.13;;;0.57;;
13897;SDS011;7019;50.766;4.474;2024-03-02T11:43:16;4.07;;;0.83;;
13897;SDS011;7019;50.766;4.474;2024-03-02T11:45:44;5.13;;;0.70;;
13897;SDS011;7019;50.766;4.474;2024-03-02T11:48:11;7.20;;;0.80;;
13897;SDS011;7019;50.766;4.474;2024-03-02T11:50:40;3.17;;;0.50;;
13897;SDS011;7019;50.766;4.474;2024-03-02T11:53:09;2.73;;;0.40;;
13897;SDS011;7019;50.766;4.474;2024-03-02T11:55:39;7.70;;;0.80;;
13897;SDS011;7019;50.766;4.474;2024-03-02T11:58:10;4.07;;;0.73;;
13897;SDS011;7019;50.766;4.474;2024-03-02T12:00:37;3.87;;;0.80;;
13897;SDS011;7019;50.766;4.474;2024-03-02T12:03:04;3.07;;;0.50;;
13897;SDS011;7019;50.766;4.474;2024-03-02T12:05:33;4.57;;;0.67;;
13897;SDS011;7019;50.766;4.474;2024-03-02T12:08:01;7.03;;;0.70;;
13897;SDS011;7019;50.766;4.474;2024-03-02T12:10:29;4.47;;;0.80;;
13897;SDS011;7019;50.766;4.474;2024-03-02T12:12:57;3.53;;;0.73;;
13897;SDS011;7019;50.766;4.474;2024-03-02T12:15:27;2.63;;;0.67;;
13897;SDS011;7019;50.766;4.474;2024-03-02T12:17:54;2.90;;;0.67;;
13897;SDS011;7019;50.766;4.474;2024-03-02T12:20:22;1.40;;;0.40;;
13897;SDS011;7019;50.766;4.474;2024-03-02T12:22:50;4.23;;;0.73;;
13897;SDS011;7019;50.766;4.474;2024-03-02T12:25:18;3.47;;;0.57;;
13897;SDS011;7019;50.766;4.474;2024-03-02T12:27:46;3.97;;;0.47;;
13897;SDS011;7019;50.766;4.474;2024-03-02T12:30:16;4.47;;;1.00;;
13897;SDS011;7019;50.766;4.474;2024-03-02T12:32:45;2.60;;;0.40;;
13897;SDS011;7019;50.766;4.474;2024-03-02T12:35:12;2.20;;;0.57;;
13897;SDS011;7019;50.766;4.474;2024-03-02T12:37:44;2.70;;;0.50;;
13897;SDS011;7019;50.766;4.474;2024-03-02T12:40:11;1.77;;;0.37;;
13897;SDS011;7019;50.766;4.474;2024-03-02T12:42:39;3.37;;;0.60;;
13897;SDS011;7019;50.766;4.474;2024-03-02T12:45:07;4.47;;;0.43;;
13897;SDS011;7019;50.766;4.474;2024-03-02T12:47:34;4.27;;;0.60;;
13897;SDS011;7019;50.766;4.474;2024-03-02T12:50:04;4.53;;;0.67;;
13897;SDS011;7019;50.766;4.474;2024-03-02T12:52:32;2.87;;;1.20;;
13897;SDS011;7019;50.766;4.474;2024-03-02T12:54:59;3.20;;;0.50;;
13897;SDS011;7019;50.766;4.474;2024-03-02T12:57:29;1.47;;;0.67;;
13897;SDS011;7019;50.766;4.474;2024-03-02T12:59:58;1.20;;;0.50;;
13897;SDS011;7019;50.766;4.474;2024-03-02T13:02:27;1.70;;;0.60;;
13897;SDS011;7019;50.766;4.474;2024-03-02T13:04:55;1.00;;;0.37;;
13897;SDS011;7019;50.766;4.474;2024-03-02T13:07:25;1.23;;;0.30;;
13897;SDS011;7019;50.766;4.474;2024-03-02T13:09:52;1.50;;;0.30;;
13897;SDS011;7019;50.766;4.474;2024-03-02T13:12:21;2.90;;;0.70;;
13897;SDS011;7019;50.766;4.474;2024-03-02T13:14:49;2.40;;;0.40;;
13897;SDS011;7019;50.766;4.474;2024-03-02T13:17:17;1.20;;;0.50;;
13897;SDS011;7019;50.766;4.474;2024-03-02T13:19:51;2.30;;;0.50;;
13897;SDS011;7019;50.766;4.474;2024-03-02T13:22:19;2.60;;;0.40;;
13897;SDS011;7019;50.766;4.474;2024-03-02T13:24:48;3.40;;;0.80;;
13897;SDS011;7019;50.766;4.474;2024-03-02T13:27:15;3.70;;;0.60;;
13897;SDS011;7019;50.766;4.474;2024-03-02T13:29:44;2.00;;;0.63;;
13897;SDS011;7019;50.766;4.474;2024-03-02T13:32:12;1.27;;;0.43;;
13897;SDS011;7019;50.766;4.474;2024-03-02T13:34:39;1.27;;;0.50;;
13897;SDS011;7019;50.766;4.474;2024-03-02T13:37:06;1.83;;;0.40;;
13897;SDS011;7019;50.766;4.474;2024-03-02T13:39:33;2.00;;;0.40;;
13897;SDS011;7019;50.766;4.474;2024-03-02T13:42:08;0.87;;;0.30;;
13897;SDS011;7019;50.766;4.474;2024-03-02T13:44:36;1.87;;;0.40;;
13897;SDS011;7019;50.766;4.474;2024-03-02T13:47:04;1.90;;;0.50;;
13897;SDS011;7019;50.766;4.474;2024-03-02T13:49:31;1.60;;;0.40;;
13897;SDS011;7019;50.766;4.474;2024-03-02T13:52:02;4.00;;;0.53;;
13897;SDS011;7019;50.766;4.474;2024-03-02T13:54:38;1.27;;;0.43;;
13897;SDS011;7019;50.766;4.474;2024-03-02T13:57:08;2.97;;;0.30;;
13897;SDS011;7019;50.766;4.474;2024-03-02T13:59:37;3.37;;;0.60;;
13897;SDS011;7019;50.766;4.474;2024-03-02T14:02:05;3.10;;;0.90;;
13897;SDS011;7019;50.766;4.474;2024-03-02T14:04:32;4.80;;;0.53;;
13897;SDS011;7019;50.766;4.474;2024-03-02T14:07:00;2.07;;;0.40;;
13897;SDS011;7019;50.766;4.474;2024-03-02T14:09:28;1.13;;;0.30;;
13897;SDS011;7019;50.766;4.474;2024-03-02T14:11:55;3.70;;;0.43;;
13897;SDS011;7019;50.766;4.474;2024-03-02T14:14:24;1.83;;;0.20;;
13897;SDS011;7019;50.766;4.474;2024-03-02T14:16:51;0.70;;;0.30;;
13897;SDS011;7019;50.766;4.474;2024-03-02T14:19:18;3.13;;;0.50;;
13897;SDS011;7019;50.766;4.474;2024-03-02T14:21:46;0.80;;;0.27;;
13897;SDS011;7019;50.766;4.474;2024-03-02T14:24:13;3.17;;;1.00;;
13897;SDS011;7019;50.766;4.474;2024-03-02T14:26:40;1.53;;;0.60;;
13897;SDS011;7019;50.766;4.474;2024-03-02T14:29:07;1.70;;;0.80;;
13897;SDS011;7019;50.766;4.474;2024-03-02T14:31:36;2.27;;;0.80;;
13897;SDS011;7019;50.766;4.474;2024-03-02T14:34:03;3.13;;;0.50;;
13897;SDS011;7019;50.766;4.474;2024-03-02T14:36:30;2.77;;;0.40;;
13897;SDS011;7019;50.766;4.474;2024-03-02T14:38:57;1.77;;;0.40;;
13897;SDS011;7019;50.766;4.474;2024-03-02T14:41:24;0.67;;;0.50;;
13897;SDS011;7019;50.766;4.474;2024-03-02T14:43:51;3.50;;;1.33;;
13897;SDS011;7019;50.766;4.474;2024-03-02T14:46:18;2.13;;;0.80;;
13897;SDS011;7019;50.766;4.474;2024-03-02T14:48:46;2.50;;;0.40;;
13897;SDS011;7019;50.766;4.474;2024-03-02T14:51:13;1.53;;;0.70;;
13897;SDS011;7019;50.766;4.474;2024-03-02T14:53:40;1.87;;;0.63;;
13897;SDS011;7019;50.766;4.474;2024-03-02T14:56:07;1.53;;;0.60;;
13897;SDS011;7019;50.766;4.474;2024-03-02T14:58:34;3.43;;;0.60;;
13897;SDS011;7019;50.766;4.474;2024-03-02T15:01:03;0.90;;;0.30;;
13897;SDS011;7019;50.766;4.474;2024-03-02T15:03:31;2.33;;;0.40;;
13897;SDS011;7019;50.766;4.474;2024-03-02T15:05:59;0.70;;;0.20;;